sensor_id;sensor_type;location;lat;lon;timestamp;P1;durP1;ratioP1;P2;durP2;ratioP2
20069;SDS011;10195;50.868;4.382;2023-05-07T00:01:48;7.85;;;3.60;;
20069;SDS011;10195;50.868;4.382;2023-05-07T00:04:14;7.03;;;3.40;;
20069;SDS011;10195;50.868;4.382;2023-05-07T00:06:40;13.82;;;4.43;;
20069;SDS011;10195;50.868;4.382;2023-05-07T00:09:06;7.00;;;3.33;;
20069;SDS011;10195;50.868;4.382;2023-05-07T00:11:32;10.13;;;3.47;;
20069;SDS011;10195;50.868;4.382;2023-05-07T00:13:58;8.73;;;3.33;;
20069;SDS011;10195;50.868;4.382;2023-05-07T00:16:24;11.45;;;3.80;;
20069;SDS011;10195;50.868;4.382;2023-05-07T00:18:50;9.95;;;3.58;;
20069;SDS011;10195;50.868;4.382;2023-05-07T00:21:15;11.05;;;4.28;;
20069;SDS011;10195;50.868;4.382;2023-05-07T00:23:41;10.65;;;3.70;;
20069;SDS011;10195;50.868;4.382;2023-05-07T00:26:07;8.65;;;3.80;;
20069;SDS011;10195;50.868;4.382;2023-05-07T00:28:32;10.82;;;3.78;;
20069;SDS011;10195;50.868;4.382;2023-05-07T00:30:58;9.07;;;3.73;;
20069;SDS011;10195;50.868;4.382;2023-05-07T00:33:24;9.63;;;3.53;;
20069;SDS011;10195;50.868;4.382;2023-05-07T00:35:51;7.90;;;3.80;;
20069;SDS011;10195;50.868;4.382;2023-05-07T00:38:19;9.05;;;4.05;;
20069;SDS011;10195;50.868;4.382;2023-05-07T00:40:44;9.20;;;3.78;;
20069;SDS011;10195;50.868;4.382;2023-05-07T00:43:10;8.10;;;3.40;;
20069;SDS011;10195;50.868;4.382;2023-05-07T00:45:37;6.82;;;3.60;;
20069;SDS011;10195;50.868;4.382;2023-05-07T00:48:03;10.60;;;4.00;;
20069;SDS011;10195;50.868;4.382;2023-05-07T00:50:30;12.50;;;3.50;;
20069;SDS011;10195;50.868;4.382;2023-05-07T00:52:56;10.80;;;4.00;;
20069;SDS011;10195;50.868;4.382;2023-05-07T00:55:22;9.30;;;3.88;;
20069;SDS011;10195;50.868;4.382;2023-05-07T00:57:48;7.95;;;3.47;;
20069;SDS011;10195;50.868;4.382;2023-05-07T01:00:16;9.27;;;3.50;;
20069;SDS011;10195;50.868;4.382;2023-05-07T01:02:43;8.88;;;3.28;;
20069;SDS011;10195;50.868;4.382;2023-05-07T01:05:09;9.60;;;3.47;;
20069;SDS011;10195;50.868;4.382;2023-05-07T01:07:38;10.18;;;3.17;;
20069;SDS011;10195;50.868;4.382;2023-05-07T01:10:05;9.25;;;3.70;;
20069;SDS011;10195;50.868;4.382;2023-05-07T01:12:31;9.23;;;3.80;;
20069;SDS011;10195;50.868;4.382;2023-05-07T01:14:58;9.65;;;3.30;;
20069;SDS011;10195;50.868;4.382;2023-05-07T01:17:23;12.40;;;3.85;;
20069;SDS011;10195;50.868;4.382;2023-05-07T01:19:49;7.68;;;3.47;;
20069;SDS011;10195;50.868;4.382;2023-05-07T01:22:16;9.55;;;3.75;;
20069;SDS011;10195;50.868;4.382;2023-05-07T01:24:57;7.80;;;3.20;;
20069;SDS011;10195;50.868;4.382;2023-05-07T01:27:24;7.05;;;3.00;;
20069;SDS011;10195;50.868;4.382;2023-05-07T01:29:50;10.40;;;3.15;;
20069;SDS011;10195;50.868;4.382;2023-05-07T01:32:17;10.70;;;3.55;;
20069;SDS011;10195;50.868;4.382;2023-05-07T01:34:46;8.15;;;3.28;;
20069;SDS011;10195;50.868;4.382;2023-05-07T01:37:14;8.15;;;3.13;;
20069;SDS011;10195;50.868;4.382;2023-05-07T01:39:42;11.80;;;2.92;;
20069;SDS011;10195;50.868;4.382;2023-05-07T01:42:08;12.88;;;3.50;;
20069;SDS011;10195;50.868;4.382;2023-05-07T01:44:34;11.70;;;3.40;;
20069;SDS011;10195;50.868;4.382;2023-05-07T01:47:00;8.85;;;3.60;;
20069;SDS011;10195;50.868;4.382;2023-05-07T01:49:27;8.50;;;3.40;;
20069;SDS011;10195;50.868;4.382;2023-05-07T01:51:53;7.95;;;3.38;;
20069;SDS011;10195;50.868;4.382;2023-05-07T01:54:20;13.27;;;3.58;;
20069;SDS011;10195;50.868;4.382;2023-05-07T01:56:52;8.95;;;3.25;;
20069;SDS011;10195;50.868;4.382;2023-05-07T01:59:18;11.90;;;3.05;;
20069;SDS011;10195;50.868;4.382;2023-05-07T02:01:44;7.50;;;3.30;;
20069;SDS011;10195;50.868;4.382;2023-05-07T02:04:09;7.20;;;2.70;;
20069;SDS011;10195;50.868;4.382;2023-05-07T02:06:35;10.20;;;2.90;;
20069;SDS011;10195;50.868;4.382;2023-05-07T02:09:01;10.73;;;3.53;;
20069;SDS011;10195;50.868;4.382;2023-05-07T02:11:26;6.75;;;3.10;;
20069;SDS011;10195;50.868;4.382;2023-05-07T02:13:52;7.78;;;3.00;;
20069;SDS011;10195;50.868;4.382;2023-05-07T02:16:18;9.30;;;3.35;;
20069;SDS011;10195;50.868;4.382;2023-05-07T02:18:44;5.78;;;2.53;;
20069;SDS011;10195;50.868;4.382;2023-05-07T02:21:10;7.90;;;3.08;;
20069;SDS011;10195;50.868;4.382;2023-05-07T02:23:36;9.85;;;3.22;;
20069;SDS011;10195;50.868;4.382;2023-05-07T02:26:01;5.93;;;2.97;;
20069;SDS011;10195;50.868;4.382;2023-05-07T02:28:28;8.35;;;3.22;;
20069;SDS011;10195;50.868;4.382;2023-05-07T02:30:54;7.50;;;3.25;;
20069;SDS011;10195;50.868;4.382;2023-05-07T02:33:20;9.95;;;3.33;;
20069;SDS011;10195;50.868;4.382;2023-05-07T02:35:46;9.55;;;3.20;;
20069;SDS011;10195;50.868;4.382;2023-05-07T02:38:11;7.72;;;2.85;;
20069;SDS011;10195;50.868;4.382;2023-05-07T02:40:37;8.63;;;3.22;;
20069;SDS011;10195;50.868;4.382;2023-05-07T02:43:06;7.72;;;2.80;;
20069;SDS011;10195;50.868;4.382;2023-05-07T02:45:32;9.80;;;3.50;;
20069;SDS011;10195;50.868;4.382;2023-05-07T02:47:58;8.88;;;3.30;;
20069;SDS011;10195;50.868;4.382;2023-05-07T02:50:24;11.10;;;3.67;;
20069;SDS011;10195;50.868;4.382;2023-05-07T02:52:50;12.50;;;3.45;;
20069;SDS011;10195;50.868;4.382;2023-05-07T02:55:16;16.63;;;3.88;;
20069;SDS011;10195;50.868;4.382;2023-05-07T02:57:41;13.45;;;3.85;;
20069;SDS011;10195;50.868;4.382;2023-05-07T03:00:13;9.68;;;4.00;;
20069;SDS011;10195;50.868;4.382;2023-05-07T03:02:40;11.25;;;3.92;;
20069;SDS011;10195;50.868;4.382;2023-05-07T03:05:06;11.98;;;3.70;;
20069;SDS011;10195;50.868;4.382;2023-05-07T03:07:32;9.32;;;3.60;;
20069;SDS011;10195;50.868;4.382;2023-05-07T03:09:57;13.10;;;3.53;;
20069;SDS011;10195;50.868;4.382;2023-05-07T03:12:23;10.88;;;3.42;;
20069;SDS011;10195;50.868;4.382;2023-05-07T03:14:49;5.95;;;3.55;;
20069;SDS011;10195;50.868;4.382;2023-05-07T03:17:14;10.23;;;3.50;;
20069;SDS011;10195;50.868;4.382;2023-05-07T03:19:41;8.85;;;3.40;;
20069;SDS011;10195;50.868;4.382;2023-05-07T03:22:06;11.80;;;3.65;;
20069;SDS011;10195;50.868;4.382;2023-05-07T03:24:32;12.23;;;3.42;;
20069;SDS011;10195;50.868;4.382;2023-05-07T03:26:58;10.38;;;4.07;;
20069;SDS011;10195;50.868;4.382;2023-05-07T03:29:23;7.93;;;3.10;;
20069;SDS011;10195;50.868;4.382;2023-05-07T03:31:49;9.10;;;3.38;;
20069;SDS011;10195;50.868;4.382;2023-05-07T03:34:15;8.27;;;3.53;;
20069;SDS011;10195;50.868;4.382;2023-05-07T03:36:42;7.60;;;3.75;;
20069;SDS011;10195;50.868;4.382;2023-05-07T03:39:07;8.05;;;3.78;;
20069;SDS011;10195;50.868;4.382;2023-05-07T03:41:33;14.02;;;4.00;;
20069;SDS011;10195;50.868;4.382;2023-05-07T03:43:59;10.05;;;3.67;;
20069;SDS011;10195;50.868;4.382;2023-05-07T03:46:25;8.30;;;3.58;;
20069;SDS011;10195;50.868;4.382;2023-05-07T03:48:53;9.00;;;3.70;;
20069;SDS011;10195;50.868;4.382;2023-05-07T03:51:18;17.25;;;4.20;;
20069;SDS011;10195;50.868;4.382;2023-05-07T03:53:44;8.38;;;3.35;;
20069;SDS011;10195;50.868;4.382;2023-05-07T03:56:10;11.13;;;3.83;;
20069;SDS011;10195;50.868;4.382;2023-05-07T03:58:35;11.00;;;3.60;;
20069;SDS011;10195;50.868;4.382;2023-05-07T04:01:01;8.10;;;3.60;;
20069;SDS011;10195;50.868;4.382;2023-05-07T04:03:27;9.23;;;3.83;;
20069;SDS011;10195;50.868;4.382;2023-05-07T04:05:52;13.50;;;3.90;;
20069;SDS011;10195;50.868;4.382;2023-05-07T04:08:18;8.55;;;3.92;;
20069;SDS011;10195;50.868;4.382;2023-05-07T04:10:43;14.90;;;4.20;;
20069;SDS011;10195;50.868;4.382;2023-05-07T04:13:09;10.23;;;3.72;;
20069;SDS011;10195;50.868;4.382;2023-05-07T04:15:35;10.43;;;3.95;;
20069;SDS011;10195;50.868;4.382;2023-05-07T04:18:01;8.65;;;3.95;;
20069;SDS011;10195;50.868;4.382;2023-05-07T04:20:27;9.98;;;3.40;;
20069;SDS011;10195;50.868;4.382;2023-05-07T04:22:52;9.77;;;4.07;;
20069;SDS011;10195;50.868;4.382;2023-05-07T04:25:18;13.93;;;4.60;;
20069;SDS011;10195;50.868;4.382;2023-05-07T04:27:44;9.35;;;4.03;;
20069;SDS011;10195;50.868;4.382;2023-05-07T04:30:09;10.60;;;3.75;;
20069;SDS011;10195;50.868;4.382;2023-05-07T04:32:36;10.43;;;3.88;;
20069;SDS011;10195;50.868;4.382;2023-05-07T04:35:02;12.20;;;4.05;;
20069;SDS011;10195;50.868;4.382;2023-05-07T04:37:28;15.05;;;4.13;;
20069;SDS011;10195;50.868;4.382;2023-05-07T04:39:54;8.02;;;3.70;;
20069;SDS011;10195;50.868;4.382;2023-05-07T04:42:19;12.40;;;3.85;;
20069;SDS011;10195;50.868;4.382;2023-05-07T04:44:45;9.35;;;3.17;;
20069;SDS011;10195;50.868;4.382;2023-05-07T04:47:11;10.15;;;3.70;;
20069;SDS011;10195;50.868;4.382;2023-05-07T04:49:40;10.88;;;4.15;;
20069;SDS011;10195;50.868;4.382;2023-05-07T04:52:05;8.30;;;3.55;;
20069;SDS011;10195;50.868;4.382;2023-05-07T04:54:31;11.00;;;3.45;;
20069;SDS011;10195;50.868;4.382;2023-05-07T04:56:57;12.88;;;4.07;;
20069;SDS011;10195;50.868;4.382;2023-05-07T04:59:23;10.30;;;3.53;;
20069;SDS011;10195;50.868;4.382;2023-05-07T05:01:48;12.75;;;4.53;;
20069;SDS011;10195;50.868;4.382;2023-05-07T05:04:14;10.73;;;4.05;;
20069;SDS011;10195;50.868;4.382;2023-05-07T05:06:39;11.55;;;3.92;;
20069;SDS011;10195;50.868;4.382;2023-05-07T05:09:05;8.70;;;3.80;;
20069;SDS011;10195;50.868;4.382;2023-05-07T05:11:31;7.57;;;3.80;;
20069;SDS011;10195;50.868;4.382;2023-05-07T05:13:58;7.32;;;3.33;;
20069;SDS011;10195;50.868;4.382;2023-05-07T05:16:25;8.70;;;3.55;;
20069;SDS011;10195;50.868;4.382;2023-05-07T05:18:51;11.52;;;4.05;;
20069;SDS011;10195;50.868;4.382;2023-05-07T05:21:20;11.27;;;3.65;;
20069;SDS011;10195;50.868;4.382;2023-05-07T05:23:46;11.75;;;3.33;;
20069;SDS011;10195;50.868;4.382;2023-05-07T05:26:12;8.80;;;3.70;;
20069;SDS011;10195;50.868;4.382;2023-05-07T05:28:37;10.00;;;3.95;;
20069;SDS011;10195;50.868;4.382;2023-05-07T05:31:04;11.73;;;4.38;;
20069;SDS011;10195;50.868;4.382;2023-05-07T05:33:30;9.13;;;4.07;;
20069;SDS011;10195;50.868;4.382;2023-05-07T05:35:55;12.40;;;5.05;;
20069;SDS011;10195;50.868;4.382;2023-05-07T05:38:21;11.52;;;4.60;;
20069;SDS011;10195;50.868;4.382;2023-05-07T05:40:47;9.93;;;4.50;;
20069;SDS011;10195;50.868;4.382;2023-05-07T05:43:13;9.32;;;4.72;;
20069;SDS011;10195;50.868;4.382;2023-05-07T05:45:39;11.10;;;4.95;;
20069;SDS011;10195;50.868;4.382;2023-05-07T05:48:05;9.73;;;4.63;;
20069;SDS011;10195;50.868;4.382;2023-05-07T05:50:31;13.82;;;5.45;;
20069;SDS011;10195;50.868;4.382;2023-05-07T05:52:56;20.75;;;5.22;;
20069;SDS011;10195;50.868;4.382;2023-05-07T05:55:22;10.13;;;4.60;;
20069;SDS011;10195;50.868;4.382;2023-05-07T05:57:49;15.45;;;7.00;;
20069;SDS011;10195;50.868;4.382;2023-05-07T06:00:15;17.98;;;8.85;;
20069;SDS011;10195;50.868;4.382;2023-05-07T06:02:41;13.43;;;6.00;;
20069;SDS011;10195;50.868;4.382;2023-05-07T06:05:09;17.10;;;5.78;;
20069;SDS011;10195;50.868;4.382;2023-05-07T06:07:34;13.45;;;5.72;;
20069;SDS011;10195;50.868;4.382;2023-05-07T06:10:00;10.40;;;5.28;;
20069;SDS011;10195;50.868;4.382;2023-05-07T06:12:26;10.75;;;5.28;;
20069;SDS011;10195;50.868;4.382;2023-05-07T06:14:52;11.13;;;4.28;;
20069;SDS011;10195;50.868;4.382;2023-05-07T06:17:18;11.30;;;4.40;;
20069;SDS011;10195;50.868;4.382;2023-05-07T06:19:43;11.95;;;4.20;;
20069;SDS011;10195;50.868;4.382;2023-05-07T06:22:09;11.40;;;4.07;;
20069;SDS011;10195;50.868;4.382;2023-05-07T06:24:34;13.85;;;4.60;;
20069;SDS011;10195;50.868;4.382;2023-05-07T06:27:00;16.15;;;3.90;;
20069;SDS011;10195;50.868;4.382;2023-05-07T06:29:26;9.73;;;3.60;;
20069;SDS011;10195;50.868;4.382;2023-05-07T06:31:54;17.15;;;4.38;;
20069;SDS011;10195;50.868;4.382;2023-05-07T06:34:20;10.00;;;3.95;;
20069;SDS011;10195;50.868;4.382;2023-05-07T06:36:46;11.93;;;4.13;;
20069;SDS011;10195;50.868;4.382;2023-05-07T06:39:11;10.95;;;3.85;;
20069;SDS011;10195;50.868;4.382;2023-05-07T06:41:37;10.48;;;3.78;;
20069;SDS011;10195;50.868;4.382;2023-05-07T06:44:03;15.35;;;3.83;;
20069;SDS011;10195;50.868;4.382;2023-05-07T06:46:29;14.00;;;4.15;;
20069;SDS011;10195;50.868;4.382;2023-05-07T06:48:55;10.30;;;3.60;;
20069;SDS011;10195;50.868;4.382;2023-05-07T06:51:22;11.57;;;3.83;;
20069;SDS011;10195;50.868;4.382;2023-05-07T06:53:47;12.82;;;4.20;;
20069;SDS011;10195;50.868;4.382;2023-05-07T06:56:13;15.05;;;4.40;;
20069;SDS011;10195;50.868;4.382;2023-05-07T06:58:39;12.43;;;3.92;;
20069;SDS011;10195;50.868;4.382;2023-05-07T07:01:05;9.00;;;3.85;;
20069;SDS011;10195;50.868;4.382;2023-05-07T07:03:30;9.18;;;3.92;;
20069;SDS011;10195;50.868;4.382;2023-05-07T07:05:56;9.52;;;3.97;;
20069;SDS011;10195;50.868;4.382;2023-05-07T07:08:22;11.55;;;4.45;;
20069;SDS011;10195;50.868;4.382;2023-05-07T07:10:47;7.95;;;3.90;;
20069;SDS011;10195;50.868;4.382;2023-05-07T07:13:13;9.18;;;4.10;;
20069;SDS011;10195;50.868;4.382;2023-05-07T07:15:39;9.32;;;4.50;;
20069;SDS011;10195;50.868;4.382;2023-05-07T07:18:05;8.50;;;3.75;;
20069;SDS011;10195;50.868;4.382;2023-05-07T07:20:31;8.57;;;3.63;;
20069;SDS011;10195;50.868;4.382;2023-05-07T07:22:57;15.50;;;3.88;;
20069;SDS011;10195;50.868;4.382;2023-05-07T07:25:23;10.50;;;3.78;;
20069;SDS011;10195;50.868;4.382;2023-05-07T07:27:49;8.95;;;4.18;;
20069;SDS011;10195;50.868;4.382;2023-05-07T07:30:15;8.82;;;4.03;;
20069;SDS011;10195;50.868;4.382;2023-05-07T07:32:40;8.02;;;4.43;;
20069;SDS011;10195;50.868;4.382;2023-05-07T07:35:06;9.52;;;4.05;;
20069;SDS011;10195;50.868;4.382;2023-05-07T07:37:32;10.55;;;4.32;;
20069;SDS011;10195;50.868;4.382;2023-05-07T07:39:58;9.95;;;4.63;;
20069;SDS011;10195;50.868;4.382;2023-05-07T07:42:24;7.95;;;3.55;;
20069;SDS011;10195;50.868;4.382;2023-05-07T07:44:50;9.02;;;3.88;;
20069;SDS011;10195;50.868;4.382;2023-05-07T07:47:16;11.57;;;4.00;;
20069;SDS011;10195;50.868;4.382;2023-05-07T07:49:41;8.50;;;3.75;;
20069;SDS011;10195;50.868;4.382;2023-05-07T07:52:07;7.50;;;3.85;;
20069;SDS011;10195;50.868;4.382;2023-05-07T07:54:33;9.55;;;3.97;;
20069;SDS011;10195;50.868;4.382;2023-05-07T07:56:58;6.40;;;3.42;;
20069;SDS011;10195;50.868;4.382;2023-05-07T07:59:24;6.07;;;3.28;;
20069;SDS011;10195;50.868;4.382;2023-05-07T08:01:50;9.52;;;3.70;;
20069;SDS011;10195;50.868;4.382;2023-05-07T08:04:17;8.45;;;3.50;;
20069;SDS011;10195;50.868;4.382;2023-05-07T08:06:43;13.68;;;4.38;;
20069;SDS011;10195;50.868;4.382;2023-05-07T08:09:09;8.18;;;3.63;;
20069;SDS011;10195;50.868;4.382;2023-05-07T08:11:34;8.52;;;3.65;;
20069;SDS011;10195;50.868;4.382;2023-05-07T08:14:00;7.78;;;3.90;;
20069;SDS011;10195;50.868;4.382;2023-05-07T08:16:26;8.52;;;3.38;;
20069;SDS011;10195;50.868;4.382;2023-05-07T08:18:52;6.43;;;3.30;;
20069;SDS011;10195;50.868;4.382;2023-05-07T08:21:17;6.05;;;3.00;;
20069;SDS011;10195;50.868;4.382;2023-05-07T08:23:43;8.98;;;3.35;;
20069;SDS011;10195;50.868;4.382;2023-05-07T08:26:09;8.10;;;3.40;;
20069;SDS011;10195;50.868;4.382;2023-05-07T08:28:35;9.15;;;3.63;;
20069;SDS011;10195;50.868;4.382;2023-05-07T08:31:01;9.45;;;3.60;;
20069;SDS011;10195;50.868;4.382;2023-05-07T08:33:26;12.63;;;4.43;;
20069;SDS011;10195;50.868;4.382;2023-05-07T08:35:52;11.13;;;4.47;;
20069;SDS011;10195;50.868;4.382;2023-05-07T08:38:18;7.53;;;3.53;;
20069;SDS011;10195;50.868;4.382;2023-05-07T08:40:43;11.50;;;4.90;;
20069;SDS011;10195;50.868;4.382;2023-05-07T08:43:11;10.93;;;3.90;;
20069;SDS011;10195;50.868;4.382;2023-05-07T08:45:39;10.18;;;5.03;;
20069;SDS011;10195;50.868;4.382;2023-05-07T08:48:08;8.70;;;4.93;;
20069;SDS011;10195;50.868;4.382;2023-05-07T08:50:39;11.98;;;5.40;;
20069;SDS011;10195;50.868;4.382;2023-05-07T08:53:05;7.32;;;4.43;;
20069;SDS011;10195;50.868;4.382;2023-05-07T08:55:30;9.02;;;3.92;;
20069;SDS011;10195;50.868;4.382;2023-05-07T08:57:58;15.32;;;4.63;;
20069;SDS011;10195;50.868;4.382;2023-05-07T09:00:24;8.93;;;4.03;;
20069;SDS011;10195;50.868;4.382;2023-05-07T09:02:50;8.73;;;3.70;;
20069;SDS011;10195;50.868;4.382;2023-05-07T09:05:15;8.32;;;3.85;;
20069;SDS011;10195;50.868;4.382;2023-05-07T09:07:41;7.80;;;3.75;;
20069;SDS011;10195;50.868;4.382;2023-05-07T09:10:07;6.75;;;2.95;;
20069;SDS011;10195;50.868;4.382;2023-05-07T09:12:33;4.40;;;2.60;;
20069;SDS011;10195;50.868;4.382;2023-05-07T09:15:00;7.30;;;3.10;;
20069;SDS011;10195;50.868;4.382;2023-05-07T09:17:27;6.80;;;3.13;;
20069;SDS011;10195;50.868;4.382;2023-05-07T09:19:53;9.43;;;3.20;;
20069;SDS011;10195;50.868;4.382;2023-05-07T09:22:19;7.47;;;3.40;;
20069;SDS011;10195;50.868;4.382;2023-05-07T09:24:48;8.10;;;3.13;;
20069;SDS011;10195;50.868;4.382;2023-05-07T09:27:14;9.27;;;3.60;;
20069;SDS011;10195;50.868;4.382;2023-05-07T09:29:40;10.23;;;3.67;;
20069;SDS011;10195;50.868;4.382;2023-05-07T09:32:06;5.53;;;3.33;;
20069;SDS011;10195;50.868;4.382;2023-05-07T09:34:33;9.30;;;3.63;;
20069;SDS011;10195;50.868;4.382;2023-05-07T09:37:03;9.90;;;5.20;;
20069;SDS011;10195;50.868;4.382;2023-05-07T09:39:43;9.93;;;6.35;;
20069;SDS011;10195;50.868;4.382;2023-05-07T09:42:10;10.38;;;5.20;;
20069;SDS011;10195;50.868;4.382;2023-05-07T09:44:36;6.25;;;3.80;;
20069;SDS011;10195;50.868;4.382;2023-05-07T09:47:06;6.72;;;4.28;;
20069;SDS011;10195;50.868;4.382;2023-05-07T09:49:36;7.93;;;4.05;;
20069;SDS011;10195;50.868;4.382;2023-05-07T09:52:03;8.07;;;4.38;;
20069;SDS011;10195;50.868;4.382;2023-05-07T09:54:35;7.68;;;3.97;;
20069;SDS011;10195;50.868;4.382;2023-05-07T09:57:05;9.63;;;3.90;;
20069;SDS011;10195;50.868;4.382;2023-05-07T09:59:33;12.90;;;4.28;;
20069;SDS011;10195;50.868;4.382;2023-05-07T10:02:01;9.77;;;4.35;;
20069;SDS011;10195;50.868;4.382;2023-05-07T10:04:29;7.28;;;4.32;;
20069;SDS011;10195;50.868;4.382;2023-05-07T10:06:56;9.30;;;4.30;;
20069;SDS011;10195;50.868;4.382;2023-05-07T10:09:22;8.82;;;4.35;;
20069;SDS011;10195;50.868;4.382;2023-05-07T10:11:49;7.72;;;3.53;;
20069;SDS011;10195;50.868;4.382;2023-05-07T10:14:15;9.35;;;4.05;;
20069;SDS011;10195;50.868;4.382;2023-05-07T10:16:41;8.65;;;3.53;;
20069;SDS011;10195;50.868;4.382;2023-05-07T10:19:07;9.60;;;3.05;;
20069;SDS011;10195;50.868;4.382;2023-05-07T10:21:37;8.98;;;3.25;;
20069;SDS011;10195;50.868;4.382;2023-05-07T10:26:39;8.05;;;3.22;;
20069;SDS011;10195;50.868;4.382;2023-05-07T10:29:18;9.13;;;3.63;;
20069;SDS011;10195;50.868;4.382;2023-05-07T10:35:04;5.65;;;2.60;;
20069;SDS011;10195;50.868;4.382;2023-05-07T10:37:35;6.95;;;3.58;;
20069;SDS011;10195;50.868;4.382;2023-05-07T10:40:02;7.68;;;2.47;;
20069;SDS011;10195;50.868;4.382;2023-05-07T10:42:28;4.18;;;2.40;;
20069;SDS011;10195;50.868;4.382;2023-05-07T10:44:53;7.47;;;2.70;;
20069;SDS011;10195;50.868;4.382;2023-05-07T10:47:19;5.05;;;2.70;;
20069;SDS011;10195;50.868;4.382;2023-05-07T10:54:44;4.78;;;2.63;;
20069;SDS011;10195;50.868;4.382;2023-05-07T11:00:02;8.38;;;3.00;;
20069;SDS011;10195;50.868;4.382;2023-05-07T11:03:11;8.05;;;3.55;;
20069;SDS011;10195;50.868;4.382;2023-05-07T11:05:29;7.82;;;3.28;;
20069;SDS011;10195;50.868;4.382;2023-05-07T11:08:00;7.15;;;3.38;;
20069;SDS011;10195;50.868;4.382;2023-05-07T11:13:16;5.78;;;2.88;;
20069;SDS011;10195;50.868;4.382;2023-05-07T11:15:44;4.88;;;2.60;;
20069;SDS011;10195;50.868;4.382;2023-05-07T11:18:11;5.28;;;2.33;;
20069;SDS011;10195;50.868;4.382;2023-05-07T11:20:48;4.97;;;2.50;;
20069;SDS011;10195;50.868;4.382;2023-05-07T11:26:13;7.00;;;2.47;;
20069;SDS011;10195;50.868;4.382;2023-05-07T11:28:40;6.57;;;2.72;;
20069;SDS011;10195;50.868;4.382;2023-05-07T11:31:07;6.43;;;2.20;;
20069;SDS011;10195;50.868;4.382;2023-05-07T11:33:34;3.97;;;1.92;;
20069;SDS011;10195;50.868;4.382;2023-05-07T11:36:02;6.72;;;2.53;;
20069;SDS011;10195;50.868;4.382;2023-05-07T11:38:28;3.25;;;2.10;;
20069;SDS011;10195;50.868;4.382;2023-05-07T11:40:58;5.07;;;2.50;;
20069;SDS011;10195;50.868;4.382;2023-05-07T11:43:26;3.05;;;2.30;;
20069;SDS011;10195;50.868;4.382;2023-05-07T11:45:52;6.47;;;2.47;;
20069;SDS011;10195;50.868;4.382;2023-05-07T11:48:18;7.93;;;2.75;;
20069;SDS011;10195;50.868;4.382;2023-05-07T11:50:53;6.65;;;2.63;;
20069;SDS011;10195;50.868;4.382;2023-05-07T11:53:35;5.65;;;2.55;;
20069;SDS011;10195;50.868;4.382;2023-05-07T11:56:12;4.95;;;2.80;;
20069;SDS011;10195;50.868;4.382;2023-05-07T11:58:39;5.65;;;2.60;;
20069;SDS011;10195;50.868;4.382;2023-05-07T12:01:09;4.78;;;2.42;;
20069;SDS011;10195;50.868;4.382;2023-05-07T12:03:36;7.43;;;2.53;;
20069;SDS011;10195;50.868;4.382;2023-05-07T12:06:07;4.88;;;2.33;;
20069;SDS011;10195;50.868;4.382;2023-05-07T12:08:35;5.65;;;2.45;;
20069;SDS011;10195;50.868;4.382;2023-05-07T12:11:02;4.68;;;2.17;;
20069;SDS011;10195;50.868;4.382;2023-05-07T12:13:31;3.88;;;2.25;;
20069;SDS011;10195;50.868;4.382;2023-05-07T12:15:57;6.20;;;3.22;;
20069;SDS011;10195;50.868;4.382;2023-05-07T12:18:23;4.53;;;2.17;;
20069;SDS011;10195;50.868;4.382;2023-05-07T12:20:49;6.68;;;2.75;;
20069;SDS011;10195;50.868;4.382;2023-05-07T12:23:16;7.88;;;3.60;;
20069;SDS011;10195;50.868;4.382;2023-05-07T12:25:42;7.32;;;3.78;;
20069;SDS011;10195;50.868;4.382;2023-05-07T12:28:13;6.43;;;3.88;;
20069;SDS011;10195;50.868;4.382;2023-05-07T12:30:40;6.45;;;3.75;;
20069;SDS011;10195;50.868;4.382;2023-05-07T12:33:08;6.22;;;3.58;;
20069;SDS011;10195;50.868;4.382;2023-05-07T12:35:38;4.45;;;2.95;;
20069;SDS011;10195;50.868;4.382;2023-05-07T12:38:09;3.80;;;2.50;;
20069;SDS011;10195;50.868;4.382;2023-05-07T12:40:37;6.28;;;2.58;;
20069;SDS011;10195;50.868;4.382;2023-05-07T12:43:04;6.10;;;2.83;;
20069;SDS011;10195;50.868;4.382;2023-05-07T12:45:30;5.57;;;2.72;;
20069;SDS011;10195;50.868;4.382;2023-05-07T12:47:56;5.70;;;2.70;;
20069;SDS011;10195;50.868;4.382;2023-05-07T12:50:30;3.70;;;2.25;;
20069;SDS011;10195;50.868;4.382;2023-05-07T12:52:58;3.75;;;2.45;;
20069;SDS011;10195;50.868;4.382;2023-05-07T12:55:24;4.20;;;2.50;;
20069;SDS011;10195;50.868;4.382;2023-05-07T12:57:50;5.68;;;3.10;;
20069;SDS011;10195;50.868;4.382;2023-05-07T13:00:17;4.28;;;2.45;;
20069;SDS011;10195;50.868;4.382;2023-05-07T13:02:58;5.28;;;3.40;;
20069;SDS011;10195;50.868;4.382;2023-05-07T13:05:23;3.63;;;3.13;;
20069;SDS011;10195;50.868;4.382;2023-05-07T13:07:53;6.90;;;4.20;;
20069;SDS011;10195;50.868;4.382;2023-05-07T13:10:19;8.05;;;4.80;;
20069;SDS011;10195;50.868;4.382;2023-05-07T13:12:45;6.13;;;4.40;;
20069;SDS011;10195;50.868;4.382;2023-05-07T13:15:11;6.60;;;4.60;;
20069;SDS011;10195;50.868;4.382;2023-05-07T13:17:36;5.55;;;4.35;;
20069;SDS011;10195;50.868;4.382;2023-05-07T13:20:02;6.47;;;4.50;;
20069;SDS011;10195;50.868;4.382;2023-05-07T13:22:28;9.63;;;4.22;;
20069;SDS011;10195;50.868;4.382;2023-05-07T13:24:53;6.90;;;4.55;;
20069;SDS011;10195;50.868;4.382;2023-05-07T13:27:20;7.43;;;5.10;;
20069;SDS011;10195;50.868;4.382;2023-05-07T13:29:46;8.00;;;5.75;;
20069;SDS011;10195;50.868;4.382;2023-05-07T13:32:12;8.65;;;5.15;;
20069;SDS011;10195;50.868;4.382;2023-05-07T13:34:37;6.35;;;5.38;;
20069;SDS011;10195;50.868;4.382;2023-05-07T13:37:03;8.15;;;5.78;;
20069;SDS011;10195;50.868;4.382;2023-05-07T13:39:28;7.78;;;5.00;;
20069;SDS011;10195;50.868;4.382;2023-05-07T13:41:54;6.95;;;6.15;;
20069;SDS011;10195;50.868;4.382;2023-05-07T13:44:20;10.23;;;6.05;;
20069;SDS011;10195;50.868;4.382;2023-05-07T13:46:46;6.43;;;5.78;;
20069;SDS011;10195;50.868;4.382;2023-05-07T13:49:11;9.73;;;6.35;;
20069;SDS011;10195;50.868;4.382;2023-05-07T13:51:37;10.45;;;7.05;;
20069;SDS011;10195;50.868;4.382;2023-05-07T13:54:03;9.05;;;7.45;;
20069;SDS011;10195;50.868;4.382;2023-05-07T13:56:29;12.50;;;7.22;;
20069;SDS011;10195;50.868;4.382;2023-05-07T13:58:57;8.90;;;7.47;;
20069;SDS011;10195;50.868;4.382;2023-05-07T14:01:23;10.55;;;7.38;;
20069;SDS011;10195;50.868;4.382;2023-05-07T14:03:48;13.80;;;7.95;;
20069;SDS011;10195;50.868;4.382;2023-05-07T14:06:14;9.52;;;7.82;;
20069;SDS011;10195;50.868;4.382;2023-05-07T14:08:40;10.65;;;8.40;;
20069;SDS011;10195;50.868;4.382;2023-05-07T14:11:06;8.13;;;7.32;;
20069;SDS011;10195;50.868;4.382;2023-05-07T14:13:34;8.93;;;8.02;;
20069;SDS011;10195;50.868;4.382;2023-05-07T14:16:00;10.32;;;8.07;;
20069;SDS011;10195;50.868;4.382;2023-05-07T14:18:26;9.93;;;7.45;;
20069;SDS011;10195;50.868;4.382;2023-05-07T14:20:53;8.23;;;7.53;;
20069;SDS011;10195;50.868;4.382;2023-05-07T14:23:19;8.93;;;7.90;;
20069;SDS011;10195;50.868;4.382;2023-05-07T14:25:51;10.25;;;7.80;;
20069;SDS011;10195;50.868;4.382;2023-05-07T14:28:18;9.40;;;6.72;;
20069;SDS011;10195;50.868;4.382;2023-05-07T14:30:43;8.77;;;6.88;;
20069;SDS011;10195;50.868;4.382;2023-05-07T14:33:09;11.85;;;6.90;;
20069;SDS011;10195;50.868;4.382;2023-05-07T14:35:35;9.80;;;7.20;;
20069;SDS011;10195;50.868;4.382;2023-05-07T14:38:01;9.52;;;7.43;;
20069;SDS011;10195;50.868;4.382;2023-05-07T14:40:27;11.20;;;8.20;;
20069;SDS011;10195;50.868;4.382;2023-05-07T14:42:53;9.18;;;7.57;;
20069;SDS011;10195;50.868;4.382;2023-05-07T14:45:18;8.85;;;7.50;;
20069;SDS011;10195;50.868;4.382;2023-05-07T14:47:45;8.65;;;7.75;;
20069;SDS011;10195;50.868;4.382;2023-05-07T14:50:11;9.35;;;6.90;;
20069;SDS011;10195;50.868;4.382;2023-05-07T14:52:37;9.40;;;7.10;;
20069;SDS011;10195;50.868;4.382;2023-05-07T14:55:02;8.52;;;7.00;;
20069;SDS011;10195;50.868;4.382;2023-05-07T14:57:29;9.00;;;7.03;;
20069;SDS011;10195;50.868;4.382;2023-05-07T14:59:55;9.82;;;7.78;;